Time;durP1;ratioP1;P1;durP2;ratioP2;P2;SDS_P1;SDS_P2;PMS_P1;PMS_P2;Temp;Humidity;BMP_temperature;BMP_pressure;BME280_temperature;BME280_humidity;BME280_pressure;Samples;Min_cycle;Max_cycle;Signal;HPM_P1;HPM_P2
2023/12/04 00:00:45;;;;;;;0.50;0.50;;;;;;;-1.21;100.00;101157.72;5113712;28;20028;-45
2023/12/04 00:03:10;;;;;;;0.52;0.52;;;;;;;-1.20;100.00;101158.59;5113241;28;20028;-46
2023/12/04 00:05:36;;;;;;;0.50;0.50;;;;;;;-1.20;100.00;101140.91;5112963;28;20030;-45
2023/12/04 00:08:01;;;;;;;0.60;0.60;;;;;;;-1.19;100.00;101150.25;5113695;28;20024;-46
2023/12/04 00:10:26;;;;;;;0.50;0.50;;;;;;;-1.20;100.00;101156.06;5113340;28;20027;-45
2023/12/04 00:12:51;;;;;;;0.52;0.52;;;;;;;-1.20;100.00;101146.88;5112712;28;20012;-46
2023/12/04 00:15:19;;;;;;;0.50;0.50;;;;;;;-1.19;100.00;101147.72;5113199;28;20463;-46
2023/12/04 00:17:44;;;;;;;0.55;0.55;;;;;;;-1.17;100.00;101136.09;5113372;28;20479;-45
2023/12/04 00:20:09;;;;;;;0.50;0.50;;;;;;;-1.19;100.00;101138.53;5112372;28;20069;-47
2023/12/04 00:22:36;;;;;;;0.50;0.50;;;;;;;-1.17;100.00;101146.22;5113404;28;20027;-45
2023/12/04 00:25:03;;;;;;;0.50;0.50;;;;;;;-1.17;100.00;101136.09;5113539;28;20110;-46
2023/12/04 00:27:29;;;;;;;0.50;0.50;;;;;;;-1.17;100.00;101133.56;5112204;28;20023;-45
2023/12/04 00:29:54;;;;;;;0.60;0.60;;;;;;;-1.17;100.00;101129.41;5113467;28;20277;-45
2023/12/04 00:32:19;;;;;;;0.50;0.50;;;;;;;-1.16;100.00;101132.81;5112911;28;20030;-46
2023/12/04 00:34:45;;;;;;;0.40;0.40;;;;;;;-1.14;100.00;101140.53;5112759;28;20103;-45
2023/12/04 00:37:10;;;;;;;0.50;0.50;;;;;;;-1.14;100.00;101122.81;5113015;28;20027;-45
2023/12/04 00:39:35;;;;;;;0.60;0.60;;;;;;;-1.13;100.00;101122.06;5113046;28;20034;-47
2023/12/04 00:42:00;;;;;;;0.50;0.50;;;;;;;-1.13;100.00;101127.13;5112307;28;20100;-45
2023/12/04 00:44:26;;;;;;;0.50;0.50;;;;;;;-1.14;100.00;101120.28;5113040;28;20027;-46
2023/12/04 00:46:51;;;;;;;0.50;0.50;;;;;;;-1.14;100.00;101111.06;5112928;28;20040;-45
2023/12/04 00:49:17;;;;;;;0.60;0.60;;;;;;;-1.13;100.00;101107.78;5112291;28;20027;-45
2023/12/04 00:51:42;;;;;;;0.50;0.50;;;;;;;-1.13;100.00;101117.00;5113299;28;20026;-46
2023/12/04 00:54:07;;;;;;;0.40;0.40;;;;;;;-1.14;100.00;101107.66;5112303;28;20019;-46
2023/12/04 00:56:33;;;;;;;0.50;0.50;;;;;;;-1.14;100.00;101100.06;5112742;28;20040;-46
2023/12/04 00:58:58;;;;;;;0.40;0.40;;;;;;;-1.12;100.00;101101.06;5112926;28;20378;-49
2023/12/04 01:01:23;;;;;;;0.50;0.50;;;;;;;-1.11;100.00;101101.19;5112141;28;20028;-49
2023/12/04 01:03:49;;;;;;;0.50;0.50;;;;;;;-1.11;100.00;101093.63;5115717;28;20023;-50
2023/12/04 01:06:23;;;;;;;0.50;0.50;;;;;;;-1.10;100.00;101092.81;5116829;28;20175;-48
2023/12/04 01:08:50;;;;;;;0.60;0.60;;;;;;;-1.09;100.00;101091.19;5116440;28;20053;-46
2023/12/04 01:11:16;;;;;;;0.50;0.50;;;;;;;-1.09;100.00;101087.00;5116553;28;20028;-45
2023/12/04 01:13:41;;;;;;;0.50;0.50;;;;;;;-1.10;100.00;101085.25;5117121;28;20020;-45
2023/12/04 01:16:08;;;;;;;0.40;0.40;;;;;;;-1.09;100.00;101078.56;5116350;28;20024;-46
2023/12/04 01:18:33;;;;;;;0.50;0.50;;;;;;;-1.08;100.00;101086.25;5109757;28;20491;-45
2023/12/04 01:20:59;;;;;;;0.60;0.60;;;;;;;-1.09;100.00;101084.47;5096502;28;20144;-45
2023/12/04 01:23:24;;;;;;;0.60;0.60;;;;;;;-1.09;100.00;101081.94;5095354;28;20093;-45
2023/12/04 01:25:49;;;;;;;0.60;0.60;;;;;;;-1.08;100.00;101078.66;5096238;28;20052;-46
2023/12/04 01:28:15;;;;;;;0.50;0.50;;;;;;;-1.07;100.00;101075.38;5095762;28;20517;-45
2023/12/04 01:30:40;;;;;;;0.50;0.50;;;;;;;-1.07;100.00;101071.94;5095547;28;20024;-46
2023/12/04 01:33:05;;;;;;;0.50;0.50;;;;;;;-1.09;100.00;101066.78;5096149;28;20024;-45
2023/12/04 01:35:30;;;;;;;0.50;0.50;;;;;;;-1.08;100.00;101063.50;5095753;28;20027;-45
2023/12/04 01:37:56;;;;;;;0.50;0.50;;;;;;;-1.07;100.00;101065.25;5095343;28;20028;-45
2023/12/04 01:40:21;;;;;;;0.50;0.50;;;;;;;-1.06;100.00;101058.53;5095527;28;20032;-44
2023/12/04 01:42:46;;;;;;;0.47;0.47;;;;;;;-1.05;100.00;101056.13;5095916;28;20088;-46
2023/12/04 01:45:12;;;;;;;0.50;0.50;;;;;;;-1.06;100.00;101054.38;5094812;28;20065;-45
2023/12/04 01:47:37;;;;;;;0.45;0.45;;;;;;;-1.04;100.00;101059.56;5096002;28;20039;-45
2023/12/04 01:50:04;;;;;;;0.50;0.50;;;;;;;-1.05;100.00;101063.72;5095865;28;20020;-46
2023/12/04 01:52:30;;;;;;;0.50;0.50;;;;;;;-1.04;100.00;101050.31;5094792;28;20146;-47
2023/12/04 01:54:55;;;;;;;0.50;0.50;;;;;;;-1.04;100.00;101051.97;5095657;28;20119;-46
2023/12/04 01:57:21;;;;;;;0.43;0.43;;;;;;;-1.04;100.00;101052.84;5094448;28;20035;-46
2023/12/04 01:59:46;;;;;;;0.52;0.52;;;;;;;-1.02;100.00;101046.28;5095644;28;20032;-45
2023/12/04 02:02:13;;;;;;;0.43;0.43;;;;;;;-1.02;100.00;101040.31;5095221;28;20458;-45
2023/12/04 02:04:38;;;;;;;0.47;0.47;;;;;;;-1.02;100.00;101036.16;5094692;28;20871;-45
2023/12/04 02:07:04;;;;;;;0.50;0.50;;;;;;;-1.01;100.00;101030.34;5095574;28;20043;-46
2023/12/04 02:09:30;;;;;;;0.50;0.50;;;;;;;-1.00;100.00;101034.63;5095052;28;20031;-45
2023/12/04 02:11:56;;;;;;;0.50;0.50;;;;;;;-1.00;100.00;101024.50;5094808;28;20036;-46
2023/12/04 02:14:22;;;;;;;0.57;0.57;;;;;;;-0.98;100.00;101026.25;5094852;28;20091;-47
2023/12/04 02:16:48;;;;;;;0.50;0.50;;;;;;;-0.98;100.00;101026.25;5095287;28;20471;-46
2023/12/04 02:19:14;;;;;;;0.50;0.50;;;;;;;-0.95;100.00;101018.94;5094184;28;20043;-45
2023/12/04 02:21:39;;;;;;;0.50;0.50;;;;;;;-0.97;100.00;101012.88;5095168;28;20028;-45
2023/12/04 02:24:05;;;;;;;0.52;0.52;;;;;;;-0.97;100.00;101012.88;5094971;28;20036;-49
2023/12/04 02:26:37;;;;;;;0.60;0.60;;;;;;;-0.97;100.00;101008.69;5093926;28;20028;-46
2023/12/04 02:29:11;;;;;;;0.57;0.57;;;;;;;-0.96;100.00;101009.56;5095181;28;20074;-44
2023/12/04 02:31:39;;;;;;;0.40;0.40;;;;;;;-0.97;100.00;101008.69;5095120;28;20048;-45
2023/12/04 02:34:07;;;;;;;0.43;0.43;;;;;;;-0.97;100.00;101002.75;5093993;28;20020;-44
2023/12/04 02:36:34;;;;;;;0.40;0.40;;;;;;;-0.94;100.00;100997.91;5094537;28;20028;-46
2023/12/04 02:39:00;;;;;;;0.50;0.50;;;;;;;-0.94;100.00;100992.84;5094716;28;20028;-49
2023/12/04 02:41:25;;;;;;;0.50;0.50;;;;;;;-0.94;100.00;100993.75;5094109;28;20082;-45
2023/12/04 02:43:50;;;;;;;0.50;0.50;;;;;;;-0.95;100.00;100997.03;5094989;28;20053;-51
2023/12/04 02:46:16;;;;;;;0.60;0.60;;;;;;;-0.92;100.00;100991.34;5094363;28;20102;-44
2023/12/04 02:48:41;;;;;;;0.50;0.50;;;;;;;-0.91;100.00;100988.91;5094243;28;20023;-46
2023/12/04 02:51:07;;;;;;;0.52;0.52;;;;;;;-0.91;100.00;100985.50;5094681;28;20020;-45
2023/12/04 02:53:32;;;;;;;0.50;0.50;;;;;;;-0.92;100.00;100978.69;5093927;28;20387;-45
2023/12/04 02:55:57;;;;;;;0.50;0.50;;;;;;;-0.92;100.00;100976.16;5094397;28;20020;-44
2023/12/04 02:58:22;;;;;;;0.47;0.47;;;;;;;-0.89;100.00;100973.84;5094385;28;20107;-46
2023/12/04 03:00:48;;;;;;;0.50;0.50;;;;;;;-0.92;100.00;100969.44;5093803;28;20375;-45
2023/12/04 03:03:13;;;;;;;0.50;0.50;;;;;;;-0.91;100.00;100966.16;5094161;28;20099;-47
2023/12/04 03:05:38;;;;;;;0.57;0.57;;;;;;;-0.90;100.00;100959.47;5094422;28;20028;-46
2023/12/04 03:08:03;;;;;;;0.50;0.50;;;;;;;-0.89;100.00;100957.03;5093549;28;20403;-45
2023/12/04 03:10:29;;;;;;;0.50;0.50;;;;;;;-0.88;100.00;100952.84;5094119;28;20078;-47
2023/12/04 03:12:54;;;;;;;0.60;0.60;;;;;;;-0.90;100.00;100950.22;5094373;28;20153;-45
2023/12/04 03:15:19;;;;;;;0.60;0.60;;;;;;;-0.92;100.00;100945.78;5093274;28;20376;-45
2023/12/04 03:17:45;;;;;;;0.50;0.50;;;;;;;-0.91;100.00;100952.63;5094098;28;20094;-46
2023/12/04 03:20:10;;;;;;;0.50;0.50;;;;;;;-0.94;100.00;100944.78;5093666;28;20114;-45
2023/12/04 03:22:36;;;;;;;0.45;0.45;;;;;;;-0.92;100.00;100944.13;5093215;28;20036;-45
2023/12/04 03:25:02;;;;;;;0.50;0.50;;;;;;;-0.90;100.00;100931.63;5093668;28;20031;-45
2023/12/04 03:27:27;;;;;;;0.50;0.50;;;;;;;-0.92;100.00;100935.66;5093590;28;20153;-46
2023/12/04 03:29:52;;;;;;;0.60;0.60;;;;;;;-0.91;100.00;100929.84;5093096;28;20149;-46
2023/12/04 03:32:18;;;;;;;0.50;0.50;;;;;;;-0.93;100.00;100918.72;5093634;28;20016;-45
2023/12/04 03:34:43;;;;;;;0.60;0.60;;;;;;;-0.92;100.00;100916.31;5093853;28;20089;-45
2023/12/04 03:37:08;;;;;;;0.50;0.50;;;;;;;-0.92;100.00;100928.09;5092999;28;20035;-46
2023/12/04 03:39:34;;;;;;;0.50;0.50;;;;;;;-0.93;100.00;100914.56;5093537;28;20040;-44
2023/12/04 03:41:59;;;;;;;0.50;0.50;;;;;;;-0.93;100.00;100903.53;5093613;28;20028;-45
2023/12/04 03:44:25;;;;;;;0.40;0.40;;;;;;;-0.93;100.00;100903.53;5092641;28;20036;-45
2023/12/04 03:46:51;;;;;;;0.47;0.47;;;;;;;-0.92;100.00;100897.72;5093388;28;20127;-44
2023/12/04 03:49:17;;;;;;;0.50;0.50;;;;;;;-0.92;100.00;100898.59;5093245;28;20048;-44
2023/12/04 03:51:42;;;;;;;0.50;0.50;;;;;;;-0.89;100.00;100895.41;5092690;28;20063;-46
2023/12/04 03:54:07;;;;;;;0.60;0.60;;;;;;;-0.90;100.00;100879.38;5094203;28;20095;-45
2023/12/04 03:56:32;;;;;;;0.40;0.40;;;;;;;-0.92;100.00;100880.88;5093120;28;20036;-44
2023/12/04 03:58:58;;;;;;;0.50;0.50;;;;;;;-0.93;100.00;100880.78;5092496;28;20073;-45
2023/12/04 04:01:23;;;;;;;0.50;0.50;;;;;;;-0.96;100.00;100875.50;5093057;28;20093;-45
2023/12/04 04:03:48;;;;;;;0.50;0.50;;;;;;;-0.96;100.00;100880.53;5093309;28;20023;-44
2023/12/04 04:06:13;;;;;;;0.40;0.40;;;;;;;-0.97;100.00;100872.06;5092337;28;20117;-46
2023/12/04 04:08:39;;;;;;;0.50;0.50;;;;;;;-0.98;100.00;100879.53;5093247;28;20016;-49
2023/12/04 04:11:04;;;;;;;0.60;0.60;;;;;;;-1.00;100.00;100872.72;5092610;28;20054;-45
2023/12/04 04:13:29;;;;;;;0.40;0.40;;;;;;;-1.02;100.00;100876.78;5092924;28;20039;-45
2023/12/04 04:15:55;;;;;;;0.50;0.50;;;;;;;-1.02;100.00;100868.28;5093262;28;20085;-45
2023/12/04 04:18:20;;;;;;;0.60;0.60;;;;;;;-1.02;100.00;100865.75;5091855;28;20023;-46
2023/12/04 04:20:45;;;;;;;0.50;0.50;;;;;;;-1.03;100.00;100856.44;5093074;28;20032;-46
2023/12/04 04:23:10;;;;;;;0.50;0.50;;;;;;;-1.04;100.00;100855.53;5092640;28;20032;-45
2023/12/04 04:25:36;;;;;;;0.60;0.60;;;;;;;-1.05;100.00;100853.75;5092507;28;20028;-45
2023/12/04 04:28:01;;;;;;;0.50;0.50;;;;;;;-1.07;100.00;100851.88;5092990;28;20024;-45
2023/12/04 04:30:26;;;;;;;0.40;0.40;;;;;;;-1.08;100.00;100848.47;5092566;28;20544;-45
2023/12/04 04:32:52;;;;;;;0.52;0.52;;;;;;;-1.07;100.00;100842.66;5092349;28;20036;-45
2023/12/04 04:35:17;;;;;;;0.50;0.50;;;;;;;-1.08;100.00;100842.56;5092704;28;20016;-45
2023/12/04 04:37:42;;;;;;;0.60;0.60;;;;;;;-1.09;100.00;100844.19;5092806;28;20024;-47
2023/12/04 04:40:08;;;;;;;0.50;0.50;;;;;;;-1.11;100.00;100837.25;5091990;28;20031;-47
2023/12/04 04:42:33;;;;;;;0.40;0.40;;;;;;;-1.10;100.00;100828.91;5092671;28;20021;-48
2023/12/04 04:44:58;;;;;;;0.50;0.50;;;;;;;-1.08;100.00;100832.44;5092784;28;20032;-50
2023/12/04 04:47:24;;;;;;;0.50;0.50;;;;;;;-1.08;100.00;100834.97;5091799;28;20491;-48
2023/12/04 04:49:49;;;;;;;0.50;0.50;;;;;;;-1.08;100.00;100827.38;5092718;28;20028;-46
2023/12/04 04:52:14;;;;;;;0.50;0.50;;;;;;;-1.07;100.00;100819.91;5092265;28;20028;-50
2023/12/04 04:54:39;;;;;;;0.50;0.50;;;;;;;-1.08;100.00;100833.31;5092246;28;20470;-49
2023/12/04 04:57:05;;;;;;;0.60;0.60;;;;;;;-1.07;100.00;100829.13;5092785;28;20031;-51
2023/12/04 04:59:31;;;;;;;0.55;0.55;;;;;;;-1.07;100.00;100837.59;5092489;28;20539;-48
2023/12/04 05:01:57;;;;;;;0.45;0.45;;;;;;;-1.01;100.00;100830.50;5092150;28;20408;-49
2023/12/04 05:04:22;;;;;;;0.43;0.43;;;;;;;-1.08;100.00;100828.25;5092285;28;20051;-49
2023/12/04 05:06:48;;;;;;;0.50;0.50;;;;;;;-1.07;100.00;100822.44;5092503;28;20490;-51
2023/12/04 05:09:13;;;;;;;0.50;0.50;;;;;;;-1.07;100.00;100822.44;5091429;28;20368;-49
2023/12/04 05:11:38;;;;;;;0.50;0.50;;;;;;;-1.07;100.00;100824.97;5092700;28;20020;-49
2023/12/04 05:14:04;;;;;;;0.50;0.50;;;;;;;-1.07;100.00;100814.84;5092462;28;20028;-50
2023/12/04 05:16:29;;;;;;;0.43;0.43;;;;;;;-1.08;100.00;100823.19;5091375;28;20054;-48
2023/12/04 05:18:54;;;;;;;0.50;0.50;;;;;;;-1.07;100.00;100827.50;5092356;28;20043;-50
2023/12/04 05:21:19;;;;;;;0.50;0.50;;;;;;;-1.06;100.00;100815.72;5091405;28;20028;-49
2023/12/04 05:23:45;;;;;;;0.50;0.50;;;;;;;-1.04;100.00;100815.06;5092601;28;20395;-50
2023/12/04 05:26:10;;;;;;;0.50;0.50;;;;;;;-1.04;100.00;100817.59;5092229;28;20028;-48
2023/12/04 05:28:35;;;;;;;0.60;0.60;;;;;;;-1.04;100.00;100804.06;5091658;28;20043;-50
2023/12/04 05:31:01;;;;;;;0.40;0.40;;;;;;;-1.05;100.00;100794.72;5092308;28;20032;-51
2023/12/04 05:33:27;;;;;;;0.60;0.60;;;;;;;-1.05;100.00;100795.59;5092080;28;20017;-50
2023/12/04 05:35:52;;;;;;;0.50;0.50;;;;;;;-1.05;100.00;100797.25;5091415;28;20078;-51
2023/12/04 05:38:18;;;;;;;0.50;0.50;;;;;;;-1.04;100.00;100784.72;5092114;28;20035;-50
2023/12/04 05:40:43;;;;;;;0.55;0.55;;;;;;;-1.03;100.00;100786.47;5092357;28;20032;-50
2023/12/04 05:43:09;;;;;;;0.50;0.50;;;;;;;-1.01;100.00;100782.44;5091507;28;20028;-52
2023/12/04 05:45:34;;;;;;;0.50;0.50;;;;;;;-1.01;100.00;100784.97;5091782;28;20043;-49
2023/12/04 05:47:59;;;;;;;0.50;0.50;;;;;;;-1.03;100.00;100780.56;5092419;28;20103;-49
2023/12/04 05:50:25;;;;;;;0.45;0.45;;;;;;;-1.02;100.00;100773.06;5094369;28;20032;-51
2023/12/04 05:52:50;;;;;;;0.50;0.50;;;;;;;-0.95;100.00;100782.00;5095918;28;20028;-48
2023/12/04 05:55:16;;;;;;;0.50;0.50;;;;;;;-1.02;100.00;100788.25;5095489;28;20353;-46
2023/12/04 05:57:41;;;;;;;0.60;0.60;;;;;;;-1.02;100.00;100788.25;5095041;28;20052;-45
2023/12/04 06:00:16;;;;;;;0.43;0.43;;;;;;;-1.01;100.00;100790.03;5095530;28;20039;-49
2023/12/04 06:02:42;;;;;;;0.60;0.60;;;;;;;-1.01;100.00;100792.53;5095609;28;20031;-50
2023/12/04 06:05:08;;;;;;;0.50;0.50;;;;;;;-1.01;100.00;100774.84;5094711;28;20452;-51
2023/12/04 06:07:34;;;;;;;0.45;0.45;;;;;;;-1.01;100.00;100782.44;5094990;28;20515;-49
2023/12/04 06:09:59;;;;;;;0.60;0.60;;;;;;;-1.00;100.00;100769.00;5095615;28;20021;-47
2023/12/04 06:12:24;;;;;;;0.60;0.60;;;;;;;-1.01;100.00;100762.19;5094547;28;20104;-50
2023/12/04 06:14:50;;;;;;;0.50;0.50;;;;;;;-1.00;100.00;100761.41;5095312;28;20028;-49
2023/12/04 06:17:16;;;;;;;0.50;0.50;;;;;;;-1.00;100.00;100748.75;5095104;28;20024;-49
2023/12/04 06:19:41;;;;;;;0.50;0.50;;;;;;;-0.98;100.00;100746.38;5094297;28;20437;-47
2023/12/04 06:22:07;;;;;;;0.50;0.50;;;;;;;-0.98;100.00;100748.00;5095393;28;20067;-50
2023/12/04 06:24:33;;;;;;;0.50;0.50;;;;;;;-0.98;100.00;100741.31;5094682;28;20055;-46
2023/12/04 06:26:58;;;;;;;0.50;0.50;;;;;;;-0.96;100.00;100736.34;5094895;28;20023;-51
2023/12/04 06:29:24;;;;;;;0.50;0.50;;;;;;;-0.97;100.00;100729.53;5094877;28;20022;-49
2023/12/04 06:31:50;;;;;;;0.57;0.57;;;;;;;-0.97;100.00;100716.88;5094300;28;20024;-50
2023/12/04 06:34:15;;;;;;;0.57;0.57;;;;;;;-0.94;100.00;100719.63;5094653;28;20043;-48
2023/12/04 06:36:41;;;;;;;0.50;0.50;;;;;;;-0.94;100.00;100712.03;5095032;28;20380;-48
2023/12/04 06:39:14;;;;;;;0.52;0.52;;;;;;;-0.94;100.00;100704.44;5094179;28;20035;-47
2023/12/04 06:41:40;;;;;;;0.50;0.50;;;;;;;-0.93;100.00;100699.50;5094941;28;20027;-47
2023/12/04 06:44:06;;;;;;;0.60;0.60;;;;;;;-0.95;100.00;100690.91;5094916;28;20020;-48
2023/12/04 06:46:36;;;;;;;0.50;0.50;;;;;;;-0.95;100.00;100690.06;5093660;28;20452;-49
2023/12/04 06:49:04;;;;;;;0.50;0.50;;;;;;;-0.95;100.00;100679.94;5094807;28;20433;-50
2023/12/04 06:51:29;;;;;;;0.47;0.47;;;;;;;-0.94;100.00;100679.13;5094351;28;20506;-50
2023/12/04 06:53:55;;;;;;;0.50;0.50;;;;;;;-0.93;100.00;100675.84;5094119;28;20028;-50
2023/12/04 06:56:20;;;;;;;0.50;0.50;;;;;;;-0.92;100.00;100682.66;5094204;28;20028;-49
2023/12/04 06:58:45;;;;;;;0.50;0.50;;;;;;;-0.90;100.00;100678.63;5094534;28;20501;-49
2023/12/04 07:01:10;;;;;;;0.60;0.60;;;;;;;-0.93;100.00;100684.34;5092255;28;20031;-50
2023/12/04 07:03:36;;;;;;;0.40;0.40;;;;;;;-0.92;100.00;100690.25;5094269;28;20051;-48
2023/12/04 07:06:01;;;;;;;0.50;0.50;;;;;;;-0.93;100.00;100691.03;5094302;28;20042;-49
2023/12/04 07:08:26;;;;;;;0.40;0.40;;;;;;;-0.93;100.00;100685.97;5093534;28;20073;-48
2023/12/04 07:10:52;;;;;;;0.50;0.50;;;;;;;-0.96;100.00;100689.16;5094352;28;20024;-48
2023/12/04 07:13:17;;;;;;;0.50;0.50;;;;;;;-0.95;100.00;100695.09;5094050;28;20045;-50
2023/12/04 07:15:43;;;;;;;0.60;0.60;;;;;;;-0.96;100.00;100685.75;5093426;28;20069;-48
2023/12/04 07:18:08;;;;;;;0.50;0.50;;;;;;;-0.95;100.00;100675.75;5094116;28;20372;-51
2023/12/04 07:20:34;;;;;;;0.40;0.40;;;;;;;-0.96;100.00;100681.56;5093960;28;20116;-49
2023/12/04 07:22:59;;;;;;;0.50;0.50;;;;;;;-0.96;100.00;100676.50;5093505;28;20159;-49
2023/12/04 07:25:25;;;;;;;0.40;0.40;;;;;;;-0.96;100.00;100678.16;5093833;28;20035;-49
2023/12/04 07:27:50;;;;;;;0.50;0.50;;;;;;;-0.96;100.00;100684.09;5093647;28;20388;-48
2023/12/04 07:30:15;;;;;;;0.50;0.50;;;;;;;-0.95;100.00;100688.38;5093454;28;20047;-46
2023/12/04 07:32:41;;;;;;;0.55;0.55;;;;;;;-0.97;100.00;100692.44;5093709;28;20391;-47
2023/12/04 07:35:07;;;;;;;0.50;0.50;;;;;;;-0.97;100.00;100689.03;5092952;28;20031;-46
2023/12/04 07:37:32;;;;;;;0.50;0.50;;;;;;;-0.97;100.00;100678.94;5093654;28;20035;-49
2023/12/04 07:39:57;;;;;;;0.60;0.60;;;;;;;-0.96;100.00;100683.22;5093816;28;20031;-50
2023/12/04 07:42:23;;;;;;;0.45;0.45;;;;;;;-0.95;100.00;100682.47;5092667;28;20020;-48
2023/12/04 07:44:49;;;;;;;0.50;0.50;;;;;;;-0.97;100.00;100689.03;5093648;28;20020;-50
2023/12/04 07:47:15;;;;;;;0.60;0.60;;;;;;;-0.95;100.00;100690.06;5093100;28;20048;-49
2023/12/04 07:49:41;;;;;;;0.60;0.60;;;;;;;-0.95;100.00;100687.53;5092940;28;20020;-51
2023/12/04 07:52:06;;;;;;;0.50;0.50;;;;;;;-0.94;100.00;100691.78;5093694;28;20099;-46
2023/12/04 07:54:32;;;;;;;0.50;0.50;;;;;;;-0.93;100.00;100675.84;5093102;28;20042;-50
2023/12/04 07:56:57;;;;;;;0.50;0.50;;;;;;;-0.92;100.00;100675.09;5092852;28;20102;-50
2023/12/04 07:59:23;;;;;;;0.57;0.57;;;;;;;-0.92;100.00;100681.00;5093447;28;20027;-45
2023/12/04 08:01:48;;;;;;;0.43;0.43;;;;;;;-0.90;100.00;100671.03;5093333;28;20498;-47
2023/12/04 08:04:13;;;;;;;0.52;0.52;;;;;;;-0.90;100.00;100678.63;5092422;28;20464;-50
2023/12/04 08:06:39;;;;;;;0.50;0.50;;;;;;;-0.89;100.00;100666.06;5093431;28;20421;-49
2023/12/04 08:09:09;;;;;;;0.57;0.57;;;;;;;-0.91;100.00;100654.94;5093287;28;20428;-45
2023/12/04 08:11:34;;;;;;;0.50;0.50;;;;;;;-0.90;100.00;100654.19;5091844;28;20384;-45
2023/12/04 08:13:59;;;;;;;0.50;0.50;;;;;;;-0.87;100.00;100656.91;5093193;28;20546;-47
2023/12/04 08:16:26;;;;;;;0.52;0.52;;;;;;;-0.87;100.00;100656.06;5092653;28;20016;-48
2023/12/04 08:18:51;;;;;;;0.43;0.43;;;;;;;-0.86;100.00;100647.69;5092265;28;20540;-45
2023/12/04 08:21:17;;;;;;;0.43;0.43;;;;;;;-0.82;100.00;100647.16;5092814;28;20024;-49
2023/12/04 08:23:42;;;;;;;0.50;0.50;;;;;;;-0.81;100.00;100648.91;5093125;28;20039;-46
2023/12/04 08:26:07;;;;;;;0.40;0.40;;;;;;;-0.85;100.00;100645.28;5092270;28;20099;-50
2023/12/04 08:28:34;;;;;;;0.50;0.50;;;;;;;-0.84;100.00;100646.16;5092915;28;20103;-46
2023/12/04 08:30:59;;;;;;;0.52;0.52;;;;;;;-0.86;100.00;100642.66;5093007;28;20031;-50
2023/12/04 08:33:24;;;;;;;0.40;0.40;;;;;;;-0.86;100.00;100637.59;5091681;28;20024;-46
2023/12/04 08:35:50;;;;;;;0.50;0.50;;;;;;;-0.83;100.00;100630.19;5092836;28;20024;-50
2023/12/04 08:38:16;;;;;;;0.50;0.50;;;;;;;-0.80;100.00;100627.91;5091983;28;20020;-49
2023/12/04 08:40:42;;;;;;;0.40;0.40;;;;;;;-0.80;100.00;100627.91;5092749;28;20034;-48
2023/12/04 08:43:08;;;;;;;0.50;0.50;;;;;;;-0.80;100.00;100627.91;5092717;28;20460;-46
2023/12/04 08:45:33;;;;;;;0.60;0.60;;;;;;;-0.77;100.00;100618.00;5091580;28;20063;-50
2023/12/04 08:47:58;;;;;;;0.60;0.60;;;;;;;-0.78;100.00;100620.41;5093064;28;20054;-50
2023/12/04 08:50:25;;;;;;;0.50;0.50;;;;;;;-0.78;100.00;100611.16;5092617;28;20024;-50
2023/12/04 08:52:50;;;;;;;0.60;0.60;;;;;;;-0.78;100.00;100605.25;5092122;28;20031;-49
2023/12/04 08:55:15;;;;;;;0.50;0.50;;;;;;;-0.76;100.00;100603.69;5092483;28;20028;-45
2023/12/04 08:57:41;;;;;;;0.60;0.60;;;;;;;-0.74;100.00;100597.09;5092643;28;20472;-50
2023/12/04 09:00:08;;;;;;;0.50;0.50;;;;;;;-0.73;100.00;100601.38;5091815;28;20533;-50
2023/12/04 09:02:33;;;;;;;0.60;0.60;;;;;;;-0.74;100.00;100595.41;5092562;28;20036;-50
2023/12/04 09:04:59;;;;;;;0.50;0.50;;;;;;;-0.73;100.00;100599.72;5092402;28;20345;-49
2023/12/04 09:07:24;;;;;;;0.60;0.60;;;;;;;-0.74;100.00;100589.50;5091698;28;20028;-48
2023/12/04 09:09:49;;;;;;;0.50;0.50;;;;;;;-0.72;100.00;100585.44;5092723;28;20035;-46
2023/12/04 09:12:14;;;;;;;0.57;0.57;;;;;;;-0.72;100.00;100595.56;5092405;28;20081;-51
2023/12/04 09:14:40;;;;;;;0.50;0.50;;;;;;;-0.71;100.00;100589.69;5091780;28;20077;-48
2023/12/04 09:17:05;;;;;;;0.57;0.57;;;;;;;-0.70;100.00;100597.44;5092679;28;20021;-49
2023/12/04 09:19:31;;;;;;;0.50;0.50;;;;;;;-0.69;100.00;100598.28;5092268;28;20494;-46
2023/12/04 09:21:57;;;;;;;0.50;0.50;;;;;;;-0.69;100.00;100581.44;5091788;28;20085;-44
2023/12/04 09:24:23;;;;;;;0.50;0.50;;;;;;;-0.66;100.00;100585.84;5094010;28;20047;-48
2023/12/04 09:26:48;;;;;;;0.60;0.60;;;;;;;-0.65;100.00;100594.31;5096333;28;20383;-49
2023/12/04 09:29:15;;;;;;;0.50;0.50;;;;;;;-0.63;100.00;100585.19;5095132;28;20055;-45
2023/12/04 09:31:40;;;;;;;0.40;0.40;;;;;;;-0.63;100.00;100585.19;5096411;28;20020;-45
2023/12/04 09:34:06;;;;;;;0.50;0.50;;;;;;;-0.60;100.00;100585.41;5096128;28;20081;-44
2023/12/04 09:36:31;;;;;;;0.47;0.47;;;;;;;-0.57;100.00;100585.59;5095051;28;20054;-45
2023/12/04 09:38:56;;;;;;;0.50;0.50;;;;;;;-0.58;100.00;100582.22;5096295;28;20031;-45
2023/12/04 09:41:22;;;;;;;0.50;0.50;;;;;;;-0.54;100.00;100579.13;5095735;28;20028;-47
2023/12/04 09:43:47;;;;;;;0.60;0.60;;;;;;;-0.55;100.00;100573.94;5095115;28;20460;-48
2023/12/04 09:46:14;;;;;;;0.50;0.50;;;;;;;-0.55;100.00;100584.94;5095681;28;20059;-48
2023/12/04 09:48:42;;;;;;;0.50;0.50;;;;;;;-0.52;100.00;100585.19;5095428;28;20074;-46
2023/12/04 09:51:09;;;;;;;0.40;0.40;;;;;;;-0.48;100.00;100585.38;5096059;28;20024;-47
2023/12/04 09:53:36;;;;;;;0.50;0.50;;;;;;;-0.47;100.00;100582.94;5095785;28;20139;-49
2023/12/04 09:56:03;;;;;;;0.40;0.40;;;;;;;-0.45;100.00;100581.41;5095246;28;20107;-49
2023/12/04 09:58:32;;;;;;;0.50;0.50;;;;;;;-0.44;100.00;100578.13;5095279;28;20032;-50
2023/12/04 10:00:59;;;;;;;0.50;0.50;;;;;;;-0.42;100.00;100581.63;5095610;28;20388;-50
2023/12/04 10:03:25;;;;;;;0.60;0.60;;;;;;;-0.41;100.00;100578.31;5094630;28;20035;-50
2023/12/04 10:05:50;;;;;;;0.55;0.55;;;;;;;-0.42;100.00;100575.69;5077344;28;20020;-44
2023/12/04 10:08:17;;;;;;;0.57;0.57;;;;;;;-0.41;100.00;100563.13;5095217;28;20028;-48
2023/12/04 10:10:42;;;;;;;0.50;0.50;;;;;;;-0.41;100.00;100563.13;5095221;28;20052;-44
2023/12/04 10:13:08;;;;;;;0.40;0.40;;;;;;;-0.40;100.00;100564.00;5095389;28;20070;-50
2023/12/04 10:15:34;;;;;;;0.50;0.50;;;;;;;-0.38;100.00;100553.19;5095067;28;20024;-49
2023/12/04 10:17:59;;;;;;;0.50;0.50;;;;;;;-0.39;100.00;100551.47;5094621;28;20024;-48
2023/12/04 10:20:24;;;;;;;0.40;0.40;;;;;;;-0.38;100.00;100552.31;5095042;28;20028;-44
2023/12/04 10:22:56;;;;;;;0.50;0.50;;;;;;;-0.39;100.00;100551.47;5095425;28;20368;-51
2023/12/04 10:25:25;;;;;;;0.50;0.50;;;;;;;-0.36;100.00;100545.72;5094126;28;20028;-46
2023/12/04 10:27:51;;;;;;;0.50;0.50;;;;;;;-0.36;100.00;100536.47;5095424;28;20031;-47
2023/12/04 10:30:26;;;;;;;0.40;0.40;;;;;;;-0.34;100.00;100540.00;5095066;28;20039;-47
2023/12/04 10:33:01;;;;;;;0.50;0.50;;;;;;;-0.32;100.00;100529.06;5094439;28;20024;-46
2023/12/04 10:35:31;;;;;;;0.40;0.40;;;;;;;-0.31;100.00;100518.16;5094447;28;20031;-46
2023/12/04 10:37:56;;;;;;;0.40;0.40;;;;;;;-0.29;100.00;100506.50;5094131;28;20028;-46
2023/12/04 10:40:26;;;;;;;0.50;0.50;;;;;;;-0.30;100.00;100500.53;5094789;28;20024;-47
2023/12/04 10:43:12;;;;;;;0.40;0.40;;;;;;;-0.29;100.00;100506.50;5094812;28;20384;-46
2023/12/04 10:45:39;;;;;;;0.47;0.47;;;;;;;-0.26;100.00;100504.16;5093973;28;20098;-46
2023/12/04 10:48:05;;;;;;;0.57;0.57;;;;;;;-0.24;100.00;100493.38;5094791;28;20037;-46
2023/12/04 10:50:42;;;;;;;0.50;0.50;;;;;;;-0.23;100.00;100496.78;5094322;28;20817;-48
2023/12/04 10:53:09;;;;;;;0.50;0.50;;;;;;;-0.23;100.00;100491.72;5094203;28;20028;-45
2023/12/04 10:55:35;;;;;;;0.60;0.60;;;;;;;-0.21;100.00;100477.50;5094522;28;20405;-47
2023/12/04 10:58:11;;;;;;;0.55;0.55;;;;;;;-0.21;100.00;100480.91;5094537;28;20379;-49
2023/12/04 11:00:45;;;;;;;0.60;0.60;;;;;;;-0.17;100.00;100474.38;5093905;28;20038;-46
2023/12/04 11:03:15;;;;;;;0.50;0.50;;;;;;;-0.15;100.00;100470.31;5094288;28;20061;-46
2023/12/04 11:05:41;;;;;;;0.50;0.50;;;;;;;-0.12;100.00;100459.50;5094279;28;20483;-47
2023/12/04 11:08:14;;;;;;;0.50;0.50;;;;;;;-0.09;100.00;100459.69;5093645;28;20032;-44
2023/12/04 11:10:57;;;;;;;0.50;0.50;;;;;;;-0.06;100.00;100450.66;5094432;28;20024;-46